Terminal Aerodrome Forecast
Issued by NWS

Home | Current Version | Previous Version | Text Only | Print | Product List | Glossary On
Versions: 1 2 3 4 5 6 7 8 9 10 11 12 13 14 15 16 17 18 19 20 21 22 23 24
000
FTUS45 KBOI 241738
TAFMYL
TAF
KMYL 241738Z 2418/2518 16007KT P6SM -SHRA BKN007 OVC015
     FM241900 18008KT P6SM BKN025 OVC035
     FM242100 18007KT P6SM -SHRA VCTS SCT015 BKN030 BKN050CB
     FM250200 VRB05KT 3SM -RA BR BKN015 OVC030
     FM250700 VRB03KT 2SM -SHSN BR BKN008 OVC015=

USA.gov is the U.S. government's official web portal to all federal, state and local government web resources and services.